sensor_id;sensor_type;location;lat;lon;timestamp;P1;durP1;ratioP1;P2;durP2;ratioP2
54871;SDS011;43914;57.680;11.982;2023-09-08T00:01:37;14.40;;;7.70;;
54871;SDS011;43914;57.680;11.982;2023-09-08T00:04:02;13.90;;;8.20;;
54871;SDS011;43914;57.680;11.982;2023-09-08T00:06:29;16.70;;;8.50;;
54871;SDS011;43914;57.680;11.982;2023-09-08T00:08:54;13.70;;;7.50;;
54871;SDS011;43914;57.680;11.982;2023-09-08T00:11:20;14.50;;;7.60;;
54871;SDS011;43914;57.680;11.982;2023-09-08T00:13:45;14.90;;;7.60;;
54871;SDS011;43914;57.680;11.982;2023-09-08T00:16:11;14.70;;;8.20;;
54871;SDS011;43914;57.680;11.982;2023-09-08T00:18:36;11.90;;;7.40;;
54871;SDS011;43914;57.680;11.982;2023-09-08T00:21:02;16.00;;;7.60;;
54871;SDS011;43914;57.680;11.982;2023-09-08T00:23:27;14.30;;;7.00;;
54871;SDS011;43914;57.680;11.982;2023-09-08T00:25:53;13.50;;;7.60;;
54871;SDS011;43914;57.680;11.982;2023-09-08T00:28:19;13.10;;;7.00;;
54871;SDS011;43914;57.680;11.982;2023-09-08T00:30:44;10.50;;;7.20;;
54871;SDS011;43914;57.680;11.982;2023-09-08T00:33:10;14.50;;;7.90;;
54871;SDS011;43914;57.680;11.982;2023-09-08T00:35:38;13.00;;;7.20;;
54871;SDS011;43914;57.680;11.982;2023-09-08T00:38:03;14.60;;;7.40;;
54871;SDS011;43914;57.680;11.982;2023-09-08T00:40:29;13.00;;;7.40;;
54871;SDS011;43914;57.680;11.982;2023-09-08T00:42:54;12.90;;;7.50;;
54871;SDS011;43914;57.680;11.982;2023-09-08T00:45:20;14.10;;;7.40;;
54871;SDS011;43914;57.680;11.982;2023-09-08T00:47:45;12.40;;;7.60;;
54871;SDS011;43914;57.680;11.982;2023-09-08T00:50:11;15.30;;;8.10;;
54871;SDS011;43914;57.680;11.982;2023-09-08T00:52:37;12.10;;;7.30;;
54871;SDS011;43914;57.680;11.982;2023-09-08T00:55:03;14.10;;;8.40;;
54871;SDS011;43914;57.680;11.982;2023-09-08T00:57:29;16.30;;;8.30;;
54871;SDS011;43914;57.680;11.982;2023-09-08T00:59:55;16.00;;;8.70;;
54871;SDS011;43914;57.680;11.982;2023-09-08T01:02:20;14.30;;;8.80;;
54871;SDS011;43914;57.680;11.982;2023-09-08T01:04:47;15.00;;;9.10;;
54871;SDS011;43914;57.680;11.982;2023-09-08T01:07:12;13.00;;;7.80;;
54871;SDS011;43914;57.680;11.982;2023-09-08T01:09:40;16.30;;;8.50;;
54871;SDS011;43914;57.680;11.982;2023-09-08T01:12:06;13.90;;;8.30;;
54871;SDS011;43914;57.680;11.982;2023-09-08T01:14:32;14.70;;;7.90;;
54871;SDS011;43914;57.680;11.982;2023-09-08T01:16:58;13.80;;;7.80;;
54871;SDS011;43914;57.680;11.982;2023-09-08T01:19:23;13.90;;;8.70;;
54871;SDS011;43914;57.680;11.982;2023-09-08T01:21:52;14.60;;;8.40;;
54871;SDS011;43914;57.680;11.982;2023-09-08T01:27:19;14.60;;;8.90;;
54871;SDS011;43914;57.680;11.982;2023-09-08T01:29:49;13.10;;;8.80;;
54871;SDS011;43914;57.680;11.982;2023-09-08T01:32:16;14.40;;;7.90;;
54871;SDS011;43914;57.680;11.982;2023-09-08T01:34:43;14.30;;;9.00;;
54871;SDS011;43914;57.680;11.982;2023-09-08T01:37:08;14.70;;;8.60;;
54871;SDS011;43914;57.680;11.982;2023-09-08T01:39:34;13.00;;;8.80;;
54871;SDS011;43914;57.680;11.982;2023-09-08T01:42:00;20.20;;;9.20;;
54871;SDS011;43914;57.680;11.982;2023-09-08T01:44:26;17.10;;;10.00;;
54871;SDS011;43914;57.680;11.982;2023-09-08T01:46:51;14.50;;;9.00;;
54871;SDS011;43914;57.680;11.982;2023-09-08T01:49:22;16.10;;;8.60;;
54871;SDS011;43914;57.680;11.982;2023-09-08T01:51:48;15.20;;;8.80;;
54871;SDS011;43914;57.680;11.982;2023-09-08T01:54:13;15.70;;;9.00;;
54871;SDS011;43914;57.680;11.982;2023-09-08T01:56:39;16.70;;;9.00;;
54871;SDS011;43914;57.680;11.982;2023-09-08T01:59:04;13.50;;;8.70;;
54871;SDS011;43914;57.680;11.982;2023-09-08T02:01:30;14.40;;;9.70;;
54871;SDS011;43914;57.680;11.982;2023-09-08T02:03:55;15.60;;;8.70;;
54871;SDS011;43914;57.680;11.982;2023-09-08T02:06:21;16.10;;;9.10;;
54871;SDS011;43914;57.680;11.982;2023-09-08T02:08:46;15.10;;;9.10;;
54871;SDS011;43914;57.680;11.982;2023-09-08T02:11:12;16.50;;;9.70;;
54871;SDS011;43914;57.680;11.982;2023-09-08T02:13:38;16.40;;;10.10;;
54871;SDS011;43914;57.680;11.982;2023-09-08T02:16:04;17.70;;;11.00;;
54871;SDS011;43914;57.680;11.982;2023-09-08T02:18:30;15.70;;;9.70;;
54871;SDS011;43914;57.680;11.982;2023-09-08T02:20:55;19.50;;;11.80;;
54871;SDS011;43914;57.680;11.982;2023-09-08T02:23:20;20.40;;;11.60;;
54871;SDS011;43914;57.680;11.982;2023-09-08T02:25:46;25.80;;;13.00;;
54871;SDS011;43914;57.680;11.982;2023-09-08T02:28:11;23.40;;;12.70;;
54871;SDS011;43914;57.680;11.982;2023-09-08T02:30:37;18.20;;;11.80;;
54871;SDS011;43914;57.680;11.982;2023-09-08T02:33:02;20.00;;;13.20;;
54871;SDS011;43914;57.680;11.982;2023-09-08T02:35:28;22.00;;;12.40;;
54871;SDS011;43914;57.680;11.982;2023-09-08T02:37:54;22.40;;;13.50;;
54871;SDS011;43914;57.680;11.982;2023-09-08T02:40:19;36.70;;;12.90;;
54871;SDS011;43914;57.680;11.982;2023-09-08T02:42:46;32.20;;;12.30;;
54871;SDS011;43914;57.680;11.982;2023-09-08T02:45:11;26.20;;;13.80;;
54871;SDS011;43914;57.680;11.982;2023-09-08T02:47:37;23.60;;;12.80;;
54871;SDS011;43914;57.680;11.982;2023-09-08T02:50:02;20.90;;;12.10;;
54871;SDS011;43914;57.680;11.982;2023-09-08T02:52:30;29.70;;;12.30;;
54871;SDS011;43914;57.680;11.982;2023-09-08T02:54:55;62.30;;;12.70;;
54871;SDS011;43914;57.680;11.982;2023-09-08T02:57:21;56.50;;;12.20;;
54871;SDS011;43914;57.680;11.982;2023-09-08T02:59:50;27.00;;;13.80;;
54871;SDS011;43914;57.680;11.982;2023-09-08T03:02:21;63.40;;;12.60;;
54871;SDS011;43914;57.680;11.982;2023-09-08T03:04:47;70.80;;;12.10;;
54871;SDS011;43914;57.680;11.982;2023-09-08T03:07:13;25.20;;;11.50;;
54871;SDS011;43914;57.680;11.982;2023-09-08T03:09:38;31.00;;;11.50;;
54871;SDS011;43914;57.680;11.982;2023-09-08T03:12:04;56.00;;;11.70;;
54871;SDS011;43914;57.680;11.982;2023-09-08T03:14:29;39.70;;;12.60;;
54871;SDS011;43914;57.680;11.982;2023-09-08T03:16:55;73.80;;;12.50;;
54871;SDS011;43914;57.680;11.982;2023-09-08T03:19:20;37.20;;;12.70;;
54871;SDS011;43914;57.680;11.982;2023-09-08T03:21:46;148.60;;;13.70;;
54871;SDS011;43914;57.680;11.982;2023-09-08T03:24:11;176.90;;;13.40;;
54871;SDS011;43914;57.680;11.982;2023-09-08T03:26:37;50.90;;;12.10;;
54871;SDS011;43914;57.680;11.982;2023-09-08T03:29:04;44.20;;;11.80;;
54871;SDS011;43914;57.680;11.982;2023-09-08T03:31:30;42.50;;;11.30;;
54871;SDS011;43914;57.680;11.982;2023-09-08T03:33:55;63.60;;;12.10;;
54871;SDS011;43914;57.680;11.982;2023-09-08T03:36:21;36.60;;;10.60;;
54871;SDS011;43914;57.680;11.982;2023-09-08T03:38:46;43.50;;;11.50;;
54871;SDS011;43914;57.680;11.982;2023-09-08T03:41:12;55.30;;;11.10;;
54871;SDS011;43914;57.680;11.982;2023-09-08T03:43:38;32.30;;;10.60;;
54871;SDS011;43914;57.680;11.982;2023-09-08T03:46:04;49.20;;;10.90;;
54871;SDS011;43914;57.680;11.982;2023-09-08T03:48:29;28.70;;;11.00;;
54871;SDS011;43914;57.680;11.982;2023-09-08T03:50:55;72.60;;;11.40;;
54871;SDS011;43914;57.680;11.982;2023-09-08T03:53:20;30.50;;;10.80;;
54871;SDS011;43914;57.680;11.982;2023-09-08T03:55:46;50.40;;;10.90;;
54871;SDS011;43914;57.680;11.982;2023-09-08T03:58:11;39.30;;;11.20;;
54871;SDS011;43914;57.680;11.982;2023-09-08T04:00:36;42.90;;;11.00;;
54871;SDS011;43914;57.680;11.982;2023-09-08T04:03:02;46.40;;;11.70;;
54871;SDS011;43914;57.680;11.982;2023-09-08T04:05:28;28.20;;;10.40;;
54871;SDS011;43914;57.680;11.982;2023-09-08T04:07:54;40.60;;;11.10;;
54871;SDS011;43914;57.680;11.982;2023-09-08T04:10:19;70.60;;;10.50;;
54871;SDS011;43914;57.680;11.982;2023-09-08T04:12:45;32.30;;;9.90;;
54871;SDS011;43914;57.680;11.982;2023-09-08T04:15:11;18.70;;;10.80;;
54871;SDS011;43914;57.680;11.982;2023-09-08T04:17:37;56.20;;;11.20;;
54871;SDS011;43914;57.680;11.982;2023-09-08T04:20:05;39.80;;;10.60;;
54871;SDS011;43914;57.680;11.982;2023-09-08T04:22:33;30.10;;;10.00;;
54871;SDS011;43914;57.680;11.982;2023-09-08T04:24:59;45.00;;;9.10;;
54871;SDS011;43914;57.680;11.982;2023-09-08T04:27:25;40.60;;;9.70;;
54871;SDS011;43914;57.680;11.982;2023-09-08T04:29:51;45.00;;;10.00;;
54871;SDS011;43914;57.680;11.982;2023-09-08T04:32:16;39.60;;;9.60;;
54871;SDS011;43914;57.680;11.982;2023-09-08T04:34:42;31.50;;;9.00;;
54871;SDS011;43914;57.680;11.982;2023-09-08T04:37:08;21.30;;;9.50;;
54871;SDS011;43914;57.680;11.982;2023-09-08T04:39:34;36.10;;;9.90;;
54871;SDS011;43914;57.680;11.982;2023-09-08T04:42:02;50.30;;;9.30;;
54871;SDS011;43914;57.680;11.982;2023-09-08T04:44:28;53.90;;;9.30;;
54871;SDS011;43914;57.680;11.982;2023-09-08T04:46:54;44.60;;;8.90;;
54871;SDS011;43914;57.680;11.982;2023-09-08T04:49:19;91.20;;;9.40;;
54871;SDS011;43914;57.680;11.982;2023-09-08T04:51:45;78.60;;;10.50;;
54871;SDS011;43914;57.680;11.982;2023-09-08T04:54:10;44.10;;;9.30;;
54871;SDS011;43914;57.680;11.982;2023-09-08T04:56:36;35.00;;;9.00;;
54871;SDS011;43914;57.680;11.982;2023-09-08T04:59:03;36.80;;;10.30;;
54871;SDS011;43914;57.680;11.982;2023-09-08T05:01:28;34.40;;;9.60;;
54871;SDS011;43914;57.680;11.982;2023-09-08T05:03:57;23.70;;;9.30;;
54871;SDS011;43914;57.680;11.982;2023-09-08T05:06:26;35.70;;;9.50;;
54871;SDS011;43914;57.680;11.982;2023-09-08T05:08:51;66.10;;;9.30;;
54871;SDS011;43914;57.680;11.982;2023-09-08T05:11:17;23.50;;;9.30;;
54871;SDS011;43914;57.680;11.982;2023-09-08T05:13:44;36.10;;;9.40;;
54871;SDS011;43914;57.680;11.982;2023-09-08T05:16:13;42.90;;;9.90;;
54871;SDS011;43914;57.680;11.982;2023-09-08T05:18:40;43.70;;;9.60;;
54871;SDS011;43914;57.680;11.982;2023-09-08T05:21:06;37.70;;;9.20;;
54871;SDS011;43914;57.680;11.982;2023-09-08T05:23:32;19.80;;;9.30;;
54871;SDS011;43914;57.680;11.982;2023-09-08T05:25:59;30.30;;;10.20;;
54871;SDS011;43914;57.680;11.982;2023-09-08T05:28:25;36.80;;;10.20;;
54871;SDS011;43914;57.680;11.982;2023-09-08T05:30:51;22.20;;;10.00;;
54871;SDS011;43914;57.680;11.982;2023-09-08T05:33:17;22.70;;;10.60;;
54871;SDS011;43914;57.680;11.982;2023-09-08T05:35:44;21.60;;;9.30;;
54871;SDS011;43914;57.680;11.982;2023-09-08T05:38:10;16.60;;;10.60;;
54871;SDS011;43914;57.680;11.982;2023-09-08T05:40:35;29.20;;;9.50;;
54871;SDS011;43914;57.680;11.982;2023-09-08T05:43:02;34.90;;;9.90;;
54871;SDS011;43914;57.680;11.982;2023-09-08T05:45:27;17.90;;;9.90;;
54871;SDS011;43914;57.680;11.982;2023-09-08T05:47:56;21.60;;;10.00;;
54871;SDS011;43914;57.680;11.982;2023-09-08T05:50:22;25.20;;;9.30;;
54871;SDS011;43914;57.680;11.982;2023-09-08T05:52:48;21.50;;;9.80;;
54871;SDS011;43914;57.680;11.982;2023-09-08T05:55:13;41.00;;;10.00;;
54871;SDS011;43914;57.680;11.982;2023-09-08T05:57:39;27.70;;;9.70;;
54871;SDS011;43914;57.680;11.982;2023-09-08T06:00:06;14.40;;;8.70;;
54871;SDS011;43914;57.680;11.982;2023-09-08T06:02:32;45.50;;;9.40;;
54871;SDS011;43914;57.680;11.982;2023-09-08T06:04:57;33.40;;;9.40;;
54871;SDS011;43914;57.680;11.982;2023-09-08T06:07:23;35.60;;;9.50;;
54871;SDS011;43914;57.680;11.982;2023-09-08T06:09:49;21.10;;;9.40;;
54871;SDS011;43914;57.680;11.982;2023-09-08T06:12:14;16.30;;;9.10;;
54871;SDS011;43914;57.680;11.982;2023-09-08T06:14:39;24.60;;;8.90;;
54871;SDS011;43914;57.680;11.982;2023-09-08T06:17:05;28.00;;;9.20;;
54871;SDS011;43914;57.680;11.982;2023-09-08T06:19:30;14.40;;;9.30;;
54871;SDS011;43914;57.680;11.982;2023-09-08T06:21:56;28.20;;;9.40;;
54871;SDS011;43914;57.680;11.982;2023-09-08T06:24:21;30.30;;;9.40;;
54871;SDS011;43914;57.680;11.982;2023-09-08T06:26:47;13.90;;;6.80;;
54871;SDS011;43914;57.680;11.982;2023-09-08T06:29:14;12.90;;;6.50;;
54871;SDS011;43914;57.680;11.982;2023-09-08T06:31:40;10.40;;;6.70;;
54871;SDS011;43914;57.680;11.982;2023-09-08T06:34:05;23.10;;;8.80;;
54871;SDS011;43914;57.680;11.982;2023-09-08T06:36:31;24.10;;;10.30;;
54871;SDS011;43914;57.680;11.982;2023-09-08T06:38:56;30.90;;;8.80;;
54871;SDS011;43914;57.680;11.982;2023-09-08T06:41:22;20.90;;;8.90;;
54871;SDS011;43914;57.680;11.982;2023-09-08T06:43:49;28.20;;;7.80;;
54871;SDS011;43914;57.680;11.982;2023-09-08T06:46:14;27.00;;;8.40;;
54871;SDS011;43914;57.680;11.982;2023-09-08T06:48:40;26.60;;;8.40;;
54871;SDS011;43914;57.680;11.982;2023-09-08T06:51:06;23.50;;;8.00;;
54871;SDS011;43914;57.680;11.982;2023-09-08T06:53:31;33.70;;;7.70;;
54871;SDS011;43914;57.680;11.982;2023-09-08T06:55:57;17.30;;;8.20;;
54871;SDS011;43914;57.680;11.982;2023-09-08T06:58:23;24.30;;;7.80;;
54871;SDS011;43914;57.680;11.982;2023-09-08T07:00:49;11.10;;;7.30;;
54871;SDS011;43914;57.680;11.982;2023-09-08T07:03:15;15.60;;;7.60;;
54871;SDS011;43914;57.680;11.982;2023-09-08T07:05:41;43.70;;;7.80;;
54871;SDS011;43914;57.680;11.982;2023-09-08T07:08:07;27.80;;;7.80;;
54871;SDS011;43914;57.680;11.982;2023-09-08T07:10:32;19.30;;;8.00;;
54871;SDS011;43914;57.680;11.982;2023-09-08T07:12:58;11.50;;;8.00;;
54871;SDS011;43914;57.680;11.982;2023-09-08T07:15:23;26.80;;;7.90;;
54871;SDS011;43914;57.680;11.982;2023-09-08T07:17:49;21.50;;;8.50;;
54871;SDS011;43914;57.680;11.982;2023-09-08T07:20:14;17.00;;;7.60;;
54871;SDS011;43914;57.680;11.982;2023-09-08T07:22:40;13.30;;;7.80;;
54871;SDS011;43914;57.680;11.982;2023-09-08T07:25:06;24.50;;;8.00;;
54871;SDS011;43914;57.680;11.982;2023-09-08T07:27:33;18.10;;;7.90;;
54871;SDS011;43914;57.680;11.982;2023-09-08T07:29:59;16.10;;;8.10;;
54871;SDS011;43914;57.680;11.982;2023-09-08T07:32:24;12.10;;;7.10;;
54871;SDS011;43914;57.680;11.982;2023-09-08T07:34:50;12.50;;;7.90;;
54871;SDS011;43914;57.680;11.982;2023-09-08T07:37:22;17.20;;;7.90;;
54871;SDS011;43914;57.680;11.982;2023-09-08T07:39:49;11.90;;;7.60;;
54871;SDS011;43914;57.680;11.982;2023-09-08T07:42:15;11.20;;;7.60;;
54871;SDS011;43914;57.680;11.982;2023-09-08T07:44:40;12.60;;;7.10;;
54871;SDS011;43914;57.680;11.982;2023-09-08T07:47:06;13.20;;;7.10;;
54871;SDS011;43914;57.680;11.982;2023-09-08T07:49:35;12.20;;;6.80;;
54871;SDS011;43914;57.680;11.982;2023-09-08T07:52:00;11.60;;;6.60;;
54871;SDS011;43914;57.680;11.982;2023-09-08T07:54:26;11.50;;;6.70;;
54871;SDS011;43914;57.680;11.982;2023-09-08T07:56:51;13.60;;;7.20;;
54871;SDS011;43914;57.680;11.982;2023-09-08T07:59:17;15.70;;;6.50;;
54871;SDS011;43914;57.680;11.982;2023-09-08T08:01:42;15.40;;;7.40;;
54871;SDS011;43914;57.680;11.982;2023-09-08T08:04:08;12.20;;;6.70;;
54871;SDS011;43914;57.680;11.982;2023-09-08T08:06:34;12.40;;;6.90;;
54871;SDS011;43914;57.680;11.982;2023-09-08T08:08:59;13.50;;;7.40;;
54871;SDS011;43914;57.680;11.982;2023-09-08T08:11:25;14.80;;;7.40;;
54871;SDS011;43914;57.680;11.982;2023-09-08T08:13:51;15.00;;;7.50;;
54871;SDS011;43914;57.680;11.982;2023-09-08T08:16:16;14.90;;;7.40;;
54871;SDS011;43914;57.680;11.982;2023-09-08T08:18:42;18.80;;;8.50;;
54871;SDS011;43914;57.680;11.982;2023-09-08T08:21:08;19.50;;;7.70;;
54871;SDS011;43914;57.680;11.982;2023-09-08T08:23:34;13.70;;;6.60;;
54871;SDS011;43914;57.680;11.982;2023-09-08T08:26:00;13.20;;;7.00;;
54871;SDS011;43914;57.680;11.982;2023-09-08T08:28:25;15.40;;;7.30;;
54871;SDS011;43914;57.680;11.982;2023-09-08T08:30:51;14.80;;;7.20;;
54871;SDS011;43914;57.680;11.982;2023-09-08T08:33:18;12.30;;;6.40;;
54871;SDS011;43914;57.680;11.982;2023-09-08T08:35:52;13.20;;;6.60;;
54871;SDS011;43914;57.680;11.982;2023-09-08T08:38:19;14.00;;;7.00;;
54871;SDS011;43914;57.680;11.982;2023-09-08T08:40:44;11.50;;;6.30;;
54871;SDS011;43914;57.680;11.982;2023-09-08T08:43:10;11.40;;;6.60;;
54871;SDS011;43914;57.680;11.982;2023-09-08T08:45:37;10.90;;;6.00;;
54871;SDS011;43914;57.680;11.982;2023-09-08T08:48:04;10.80;;;6.10;;
54871;SDS011;43914;57.680;11.982;2023-09-08T08:50:31;11.90;;;6.20;;
54871;SDS011;43914;57.680;11.982;2023-09-08T08:52:58;12.70;;;6.80;;
54871;SDS011;43914;57.680;11.982;2023-09-08T08:55:27;12.40;;;6.20;;
54871;SDS011;43914;57.680;11.982;2023-09-08T08:57:55;11.80;;;6.10;;
54871;SDS011;43914;57.680;11.982;2023-09-08T09:00:28;14.00;;;6.30;;
54871;SDS011;43914;57.680;11.982;2023-09-08T09:02:54;10.90;;;5.90;;
54871;SDS011;43914;57.680;11.982;2023-09-08T09:05:23;10.00;;;5.50;;
54871;SDS011;43914;57.680;11.982;2023-09-08T09:07:49;9.90;;;5.20;;
54871;SDS011;43914;57.680;11.982;2023-09-08T09:10:16;11.60;;;5.30;;
54871;SDS011;43914;57.680;11.982;2023-09-08T09:12:42;10.10;;;5.00;;
54871;SDS011;43914;57.680;11.982;2023-09-08T09:15:08;10.10;;;5.30;;
54871;SDS011;43914;57.680;11.982;2023-09-08T09:17:34;10.20;;;4.50;;
54871;SDS011;43914;57.680;11.982;2023-09-08T09:20:18;10.80;;;4.80;;
54871;SDS011;43914;57.680;11.982;2023-09-08T09:22:46;8.30;;;4.50;;
54871;SDS011;43914;57.680;11.982;2023-09-08T09:25:28;10.80;;;4.40;;
54871;SDS011;43914;57.680;11.982;2023-09-08T09:27:56;10.60;;;4.00;;
54871;SDS011;43914;57.680;11.982;2023-09-08T09:30:23;10.00;;;4.40;;
54871;SDS011;43914;57.680;11.982;2023-09-08T09:33:02;10.70;;;4.30;;
54871;SDS011;43914;57.680;11.982;2023-09-08T09:35:39;8.80;;;3.80;;
54871;SDS011;43914;57.680;11.982;2023-09-08T09:38:09;9.60;;;4.20;;
54871;SDS011;43914;57.680;11.982;2023-09-08T09:40:34;8.00;;;3.70;;
54871;SDS011;43914;57.680;11.982;2023-09-08T09:43:00;9.00;;;4.00;;
54871;SDS011;43914;57.680;11.982;2023-09-08T09:45:26;7.60;;;3.90;;
54871;SDS011;43914;57.680;11.982;2023-09-08T09:47:52;8.00;;;3.90;;
54871;SDS011;43914;57.680;11.982;2023-09-08T09:50:30;10.90;;;4.00;;
54871;SDS011;43914;57.680;11.982;2023-09-08T09:52:58;7.40;;;3.90;;
54871;SDS011;43914;57.680;11.982;2023-09-08T09:55:26;7.60;;;3.70;;
54871;SDS011;43914;57.680;11.982;2023-09-08T09:57:56;6.90;;;3.30;;
54871;SDS011;43914;57.680;11.982;2023-09-08T10:00:28;9.80;;;3.90;;
54871;SDS011;43914;57.680;11.982;2023-09-08T10:02:55;7.60;;;3.40;;
54871;SDS011;43914;57.680;11.982;2023-09-08T10:05:21;8.30;;;4.00;;
54871;SDS011;43914;57.680;11.982;2023-09-08T10:07:49;7.60;;;3.70;;
54871;SDS011;43914;57.680;11.982;2023-09-08T10:10:15;10.60;;;3.90;;
54871;SDS011;43914;57.680;11.982;2023-09-08T10:12:43;9.20;;;4.00;;
54871;SDS011;43914;57.680;11.982;2023-09-08T10:15:10;9.00;;;4.20;;
54871;SDS011;43914;57.680;11.982;2023-09-08T10:17:37;12.50;;;3.70;;
54871;SDS011;43914;57.680;11.982;2023-09-08T10:20:03;8.50;;;3.50;;
54871;SDS011;43914;57.680;11.982;2023-09-08T10:22:36;10.20;;;3.60;;
54871;SDS011;43914;57.680;11.982;2023-09-08T10:25:07;8.50;;;4.10;;
54871;SDS011;43914;57.680;11.982;2023-09-08T10:27:33;8.30;;;3.40;;
54871;SDS011;43914;57.680;11.982;2023-09-08T10:30:01;10.80;;;3.50;;
54871;SDS011;43914;57.680;11.982;2023-09-08T10:32:35;9.10;;;3.50;;
54871;SDS011;43914;57.680;11.982;2023-09-08T10:35:06;9.70;;;3.60;;
54871;SDS011;43914;57.680;11.982;2023-09-08T10:37:32;9.10;;;3.40;;
54871;SDS011;43914;57.680;11.982;2023-09-08T10:40:40;9.20;;;3.70;;
54871;SDS011;43914;57.680;11.982;2023-09-08T10:43:08;8.10;;;3.00;;
54871;SDS011;43914;57.680;11.982;2023-09-08T10:45:34;9.20;;;3.00;;
54871;SDS011;43914;57.680;11.982;2023-09-08T10:48:00;6.80;;;3.20;;
54871;SDS011;43914;57.680;11.982;2023-09-08T10:50:27;7.30;;;3.20;;
54871;SDS011;43914;57.680;11.982;2023-09-08T10:55:39;7.40;;;3.10;;
54871;SDS011;43914;57.680;11.982;2023-09-08T10:58:11;8.10;;;3.10;;
54871;SDS011;43914;57.680;11.982;2023-09-08T11:00:45;6.40;;;2.90;;
54871;SDS011;43914;57.680;11.982;2023-09-08T11:03:42;8.10;;;2.90;;
54871;SDS011;43914;57.680;11.982;2023-09-08T11:06:10;6.30;;;2.60;;
54871;SDS011;43914;57.680;11.982;2023-09-08T11:08:41;6.00;;;2.60;;
54871;SDS011;43914;57.680;11.982;2023-09-08T11:11:12;7.00;;;2.60;;
54871;SDS011;43914;57.680;11.982;2023-09-08T11:13:39;7.70;;;2.90;;
54871;SDS011;43914;57.680;11.982;2023-09-08T11:16:12;6.80;;;2.60;;
54871;SDS011;43914;57.680;11.982;2023-09-08T11:18:42;7.00;;;2.90;;
54871;SDS011;43914;57.680;11.982;2023-09-08T11:21:08;7.40;;;2.90;;
54871;SDS011;43914;57.680;11.982;2023-09-08T11:23:35;6.40;;;2.90;;
54871;SDS011;43914;57.680;11.982;2023-09-08T11:26:01;6.50;;;2.70;;
54871;SDS011;43914;57.680;11.982;2023-09-08T11:28:27;7.00;;;2.60;;
54871;SDS011;43914;57.680;11.982;2023-09-08T11:30:53;7.10;;;2.80;;
54871;SDS011;43914;57.680;11.982;2023-09-08T11:33:21;7.10;;;2.80;;
54871;SDS011;43914;57.680;11.982;2023-09-08T11:35:51;7.30;;;2.80;;
54871;SDS011;43914;57.680;11.982;2023-09-08T11:38:18;8.70;;;3.00;;
54871;SDS011;43914;57.680;11.982;2023-09-08T11:40:44;7.50;;;2.90;;
54871;SDS011;43914;57.680;11.982;2023-09-08T11:43:11;6.90;;;2.80;;
54871;SDS011;43914;57.680;11.982;2023-09-08T11:45:37;8.20;;;3.30;;
54871;SDS011;43914;57.680;11.982;2023-09-08T11:48:03;8.10;;;3.30;;
54871;SDS011;43914;57.680;11.982;2023-09-08T11:50:30;7.30;;;3.20;;
54871;SDS011;43914;57.680;11.982;2023-09-08T11:52:56;6.80;;;3.10;;
54871;SDS011;43914;57.680;11.982;2023-09-08T11:55:27;9.70;;;3.20;;
54871;SDS011;43914;57.680;11.982;2023-09-08T11:57:53;9.60;;;3.30;;
54871;SDS011;43914;57.680;11.982;2023-09-08T12:00:22;7.10;;;3.30;;
54871;SDS011;43914;57.680;11.982;2023-09-08T12:02:49;8.30;;;3.40;;
54871;SDS011;43914;57.680;11.982;2023-09-08T12:05:21;8.10;;;3.60;;
54871;SDS011;43914;57.680;11.982;2023-09-08T12:07:51;9.10;;;3.80;;
54871;SDS011;43914;57.680;11.982;2023-09-08T12:10:18;10.50;;;4.00;;
54871;SDS011;43914;57.680;11.982;2023-09-08T12:12:54;8.60;;;4.60;;
54871;SDS011;43914;57.680;11.982;2023-09-08T12:18:12;10.10;;;5.20;;
54871;SDS011;43914;57.680;11.982;2023-09-08T12:20:41;10.10;;;5.10;;
54871;SDS011;43914;57.680;11.982;2023-09-08T12:23:21;9.10;;;5.00;;
54871;SDS011;43914;57.680;11.982;2023-09-08T12:25:47;9.10;;;4.90;;
54871;SDS011;43914;57.680;11.982;2023-09-08T12:28:16;11.10;;;4.80;;
54871;SDS011;43914;57.680;11.982;2023-09-08T12:30:46;10.20;;;5.20;;
54871;SDS011;43914;57.680;11.982;2023-09-08T12:33:12;8.40;;;4.60;;
54871;SDS011;43914;57.680;11.982;2023-09-08T12:35:42;13.30;;;5.10;;
54871;SDS011;43914;57.680;11.982;2023-09-08T12:38:10;10.20;;;4.70;;
54871;SDS011;43914;57.680;11.982;2023-09-08T12:40:37;10.00;;;4.50;;
54871;SDS011;43914;57.680;11.982;2023-09-08T12:43:03;11.00;;;4.70;;
54871;SDS011;43914;57.680;11.982;2023-09-08T12:45:30;8.00;;;4.30;;
54871;SDS011;43914;57.680;11.982;2023-09-08T12:48:00;9.70;;;4.40;;
54871;SDS011;43914;57.680;11.982;2023-09-08T12:50:27;9.80;;;4.40;;
54871;SDS011;43914;57.680;11.982;2023-09-08T12:52:54;8.20;;;4.20;;
54871;SDS011;43914;57.680;11.982;2023-09-08T12:55:22;8.10;;;4.10;;
54871;SDS011;43914;57.680;11.982;2023-09-08T12:57:48;7.60;;;3.80;;
54871;SDS011;43914;57.680;11.982;2023-09-08T13:00:15;9.40;;;3.60;;
54871;SDS011;43914;57.680;11.982;2023-09-08T13:02:40;7.70;;;3.70;;
54871;SDS011;43914;57.680;11.982;2023-09-08T13:05:09;8.90;;;3.50;;
54871;SDS011;43914;57.680;11.982;2023-09-08T13:07:34;9.40;;;3.70;;
54871;SDS011;43914;57.680;11.982;2023-09-08T13:10:00;7.30;;;3.40;;
54871;SDS011;43914;57.680;11.982;2023-09-08T13:12:25;6.40;;;3.00;;
54871;SDS011;43914;57.680;11.982;2023-09-08T13:14:51;7.10;;;3.10;;
54871;SDS011;43914;57.680;11.982;2023-09-08T13:17:17;7.30;;;3.20;;
54871;SDS011;43914;57.680;11.982;2023-09-08T13:19:43;9.60;;;3.70;;
54871;SDS011;43914;57.680;11.982;2023-09-08T13:22:09;12.90;;;3.10;;
54871;SDS011;43914;57.680;11.982;2023-09-08T13:24:35;6.50;;;2.90;;
54871;SDS011;43914;57.680;11.982;2023-09-08T13:27:03;7.60;;;3.40;;
54871;SDS011;43914;57.680;11.982;2023-09-08T13:29:29;11.60;;;3.10;;
54871;SDS011;43914;57.680;11.982;2023-09-08T13:31:54;11.00;;;3.20;;
54871;SDS011;43914;57.680;11.982;2023-09-08T13:34:20;6.80;;;2.90;;
54871;SDS011;43914;57.680;11.982;2023-09-08T13:36:49;6.40;;;2.80;;
54871;SDS011;43914;57.680;11.982;2023-09-08T13:39:15;7.00;;;3.00;;
54871;SDS011;43914;57.680;11.982;2023-09-08T13:41:59;10.20;;;3.30;;
54871;SDS011;43914;57.680;11.982;2023-09-08T13:44:26;8.60;;;3.60;;
54871;SDS011;43914;57.680;11.982;2023-09-08T13:46:52;8.70;;;3.70;;
54871;SDS011;43914;57.680;11.982;2023-09-08T13:49:19;6.30;;;2.70;;
54871;SDS011;43914;57.680;11.982;2023-09-08T13:51:45;8.20;;;3.30;;
54871;SDS011;43914;57.680;11.982;2023-09-08T13:54:11;10.40;;;3.40;;
54871;SDS011;43914;57.680;11.982;2023-09-08T13:56:38;7.60;;;3.40;;
54871;SDS011;43914;57.680;11.982;2023-09-08T13:59:05;6.40;;;2.80;;
54871;SDS011;43914;57.680;11.982;2023-09-08T14:01:32;6.10;;;3.10;;
54871;SDS011;43914;57.680;11.982;2023-09-08T14:03:59;7.90;;;2.80;;
54871;SDS011;43914;57.680;11.982;2023-09-08T14:06:26;8.20;;;3.10;;
54871;SDS011;43914;57.680;11.982;2023-09-08T14:08:52;6.10;;;2.80;;
54871;SDS011;43914;57.680;11.982;2023-09-08T14:11:18;5.90;;;2.80;;
54871;SDS011;43914;57.680;11.982;2023-09-08T14:13:44;7.40;;;3.10;;
54871;SDS011;43914;57.680;11.982;2023-09-08T14:16:13;6.70;;;3.00;;
54871;SDS011;43914;57.680;11.982;2023-09-08T14:18:39;7.50;;;3.30;;
54871;SDS011;43914;57.680;11.982;2023-09-08T14:21:05;7.90;;;3.10;;
54871;SDS011;43914;57.680;11.982;2023-09-08T14:23:32;6.70;;;3.00;;
54871;SDS011;43914;57.680;11.982;2023-09-08T14:25:59;9.70;;;3.50;;
54871;SDS011;43914;57.680;11.982;2023-09-08T14:28:25;6.20;;;3.00;;
54871;SDS011;43914;57.680;11.982;2023-09-08T14:30:51;8.30;;;3.10;;